Time;durP1;ratioP1;P1;durP2;ratioP2;P2;SDS_P1;SDS_P2;PMS_P1;PMS_P2;Temp;Humidity;BMP_temperature;BMP_pressure;BME280_temperature;BME280_humidity;BME280_pressure;Samples;Min_cycle;Max_cycle;Signal;HPM_P1;HPM_P2
2023/03/19 00:02:12;;;;;;;24.80;11.10;;;;;;;1.04;100.00;98123.94;5032518;28;20190;-79
2023/03/19 00:04:38;;;;;;;25.80;10.93;;;;;;;1.07;100.00;98124.75;5032741;28;20029;-80
2023/03/19 00:07:03;;;;;;;29.63;11.88;;;;;;;1.00;100.00;98124.88;5052899;28;20179;-79
2023/03/19 00:09:29;;;;;;;25.02;11.70;;;;;;;1.10;100.00;98131.75;5053345;28;20032;-79
2023/03/19 00:11:55;;;;;;;25.30;10.55;;;;;;;1.14;100.00;98133.41;5053492;28;20035;-79
2023/03/19 00:14:21;;;;;;;24.10;10.95;;;;;;;1.06;100.00;98124.78;5036794;28;20163;-80
2023/03/19 00:16:46;;;;;;;24.45;10.38;;;;;;;1.05;100.00;98121.25;5036465;28;20029;-79
2023/03/19 00:19:12;;;;;;;27.55;12.02;;;;;;;1.03;100.00;98128.31;5036774;28;20032;-79
2023/03/19 00:21:37;;;;;;;25.10;12.23;;;;;;;1.09;100.00;98133.50;5036739;28;20142;-79
2023/03/19 00:24:03;;;;;;;26.10;12.55;;;;;;;1.06;100.00;98115.13;5036339;28;20045;-79
2023/03/19 00:26:30;;;;;;;26.30;12.57;;;;;;;1.03;100.00;98114.28;5069489;28;20571;-80
2023/03/19 00:28:56;;;;;;;24.77;11.25;;;;;;;0.91;100.00;98111.84;5069673;28;20017;-80
2023/03/19 00:31:21;;;;;;;29.70;11.40;;;;;;;0.89;100.00;98103.09;5036018;28;20111;-79
2023/03/19 00:33:47;;;;;;;32.10;12.30;;;;;;;0.88;100.00;98114.50;5036078;28;20052;-79
2023/03/19 00:36:15;;;;;;;25.70;11.73;;;;;;;1.00;100.00;98109.94;5052750;28;20033;-80
2023/03/19 00:38:40;;;;;;;27.05;11.30;;;;;;;1.01;100.00;98114.31;5036139;28;20450;-79
2023/03/19 00:41:06;;;;;;;25.13;10.55;;;;;;;0.93;100.00;98116.19;5035947;28;20037;-79
2023/03/19 00:43:35;;;;;;;26.23;11.43;;;;;;;0.84;100.00;98112.81;5035717;28;20025;-79
2023/03/19 00:46:01;;;;;;;31.92;11.77;;;;;;;0.78;100.00;98108.50;5053032;28;20056;-80
2023/03/19 00:48:27;;;;;;;24.23;10.15;;;;;;;0.77;100.00;98109.38;5035560;28;20033;-79
2023/03/19 00:50:52;;;;;;;25.42;10.40;;;;;;;0.81;100.00;98113.72;5035737;28;20094;-79
2023/03/19 00:53:18;;;;;;;20.23;9.80;;;;;;;0.80;100.00;98113.78;5052385;28;20462;-79
2023/03/19 00:55:43;;;;;;;23.70;10.55;;;;;;;0.76;100.00;98109.44;5068876;28;20037;-79
2023/03/19 00:58:09;;;;;;;23.55;10.25;;;;;;;0.78;100.00;98120.78;5035668;28;20028;-79
2023/03/19 01:00:36;;;;;;;19.10;9.73;;;;;;;0.81;100.00;98118.13;5052554;28;20447;-79
2023/03/19 01:03:02;;;;;;;19.45;9.88;;;;;;;0.81;100.00;98110.22;5068724;28;20052;-80
2023/03/19 01:05:29;;;;;;;20.70;9.93;;;;;;;0.69;100.00;98107.75;5068822;28;20024;-80
2023/03/19 01:07:55;;;;;;;23.48;10.68;;;;;;;0.71;100.00;98113.91;5051925;28;20488;-80
2023/03/19 01:10:22;;;;;;;60.80;19.98;;;;;;;0.61;100.00;98104.38;5035359;28;20028;-80
2023/03/19 01:12:48;;;;;;;58.85;21.00;;;;;;;0.55;100.00;98105.34;5035461;28;20031;-80
2023/03/19 01:15:13;;;;;;;25.17;11.27;;;;;;;0.54;100.00;98109.72;5035672;28;20021;-79
2023/03/19 01:17:57;;;;;;;18.23;9.05;;;;;;;0.63;100.00;98119.25;5035325;28;20028;-79
2023/03/19 01:20:23;;;;;;;21.67;9.45;;;;;;;0.36;100.00;98075.78;5081980;28;20067;-79
2023/03/19 01:22:49;;;;;;;21.85;10.50;;;;;;;0.28;100.00;98077.63;5034889;28;20128;-80
2023/03/19 01:25:15;;;;;;;25.60;10.13;;;;;;;0.50;100.00;98125.56;5035487;28;20175;-78
2023/03/19 01:28:01;;;;;;;;;;;;;;;;;;;;;
2023/03/19 01:30:27;;;;;;;19.17;7.57;;;;;;;0.33;100.00;98088.97;5051930;28;20029;-79
2023/03/19 01:32:52;;;;;;;18.60;8.23;;;;;;;0.32;100.00;98105.63;5034726;28;20107;-79
2023/03/19 01:35:18;;;;;;;20.95;7.20;;;;;;;0.35;100.00;98104.72;5034998;28;20042;-78
2023/03/19 01:37:43;;;;;;;14.52;6.90;;;;;;;0.25;100.00;98093.44;5034740;28;20033;-78
2023/03/19 01:40:18;;;;;;;17.02;7.80;;;;;;;0.29;100.00;98099.53;5034836;28;20029;-79
2023/03/19 01:43:31;;;;;;;21.67;8.85;;;;;;;0.11;100.00;98066.47;5034855;28;20114;-80
2023/03/19 01:46:55;;;;;;;20.70;8.50;;;;;;;0.31;100.00;98098.63;5067991;28;20136;-78
2023/03/19 02:03:26;;;;;;;18.63;9.52;;;;;;;0.00;100.00;98031.56;4973763;28;20426;-81
2023/03/19 02:09:29;;;;;;;19.17;8.95;;;;;;;-0.04;100.00;98032.47;4971851;28;20096;-80
2023/03/19 02:12:30;;;;;;;18.47;9.27;;;;;;;-0.07;100.00;98033.38;4958609;28;20046;-79
2023/03/19 02:14:59;;;;;;;26.75;9.65;;;;;;;0.08;100.00;98069.13;4982717;28;20277;-81
2023/03/19 02:17:57;;;;;;;20.35;9.93;;;;;;;0.25;100.00;98098.69;4974750;28;20034;-82
2023/03/19 02:24:42;;;;;;;15.10;8.15;;;;;;;0.21;100.00;98107.53;4968528;28;20137;-82
2023/03/19 02:30:51;;;;;;;18.25;8.73;;;;;;;-0.38;100.00;98052.13;5048419;28;20044;-79
2023/03/19 02:33:17;;;;;;;21.00;7.55;;;;;;;0.06;100.00;98131.38;5051894;28;20104;-79
2023/03/19 02:39:59;;;;;;;15.20;7.78;;;;;;;0.00;100.00;98120.94;4951612;29;20405;-80
2023/03/19 02:42:30;;;;;;;16.60;7.45;;;;;;;-0.01;100.00;98111.31;4957531;28;20034;-79
2023/03/19 02:44:56;;;;;;;17.33;7.95;;;;;;;-0.06;100.00;98098.19;5044669;28;20086;-80
2023/03/19 02:47:23;;;;;;;16.92;8.07;;;;;;;0.08;100.00;98105.94;5050087;28;20086;-78
2023/03/19 02:50:01;;;;;;;15.65;7.80;;;;;;;0.08;100.00;98103.31;5033098;28;20016;-79
2023/03/19 02:52:26;;;;;;;23.95;9.10;;;;;;;0.14;100.00;98105.84;5034566;28;20480;-77
2023/03/19 02:54:52;;;;;;;17.00;8.13;;;;;;;0.15;100.00;98097.09;5033040;28;20062;-78
2023/03/19 02:57:17;;;;;;;24.90;9.65;;;;;;;0.16;100.00;98109.34;5033149;28;20059;-78
2023/03/19 02:59:43;;;;;;;19.55;9.70;;;;;;;0.18;100.00;98101.44;5033096;28;20062;-79
2023/03/19 03:02:09;;;;;;;17.98;8.98;;;;;;;0.18;100.00;98120.72;5049992;28;20059;-78
2023/03/19 03:04:36;;;;;;;19.17;10.00;;;;;;;0.16;100.00;98114.59;5032996;28;20023;-79
2023/03/19 03:07:02;;;;;;;24.70;10.50;;;;;;;0.19;100.00;98129.47;5033834;28;20025;-80
2023/03/19 03:09:28;;;;;;;27.92;12.20;;;;;;;0.17;100.00;98124.22;5033337;28;20156;-79
2023/03/19 03:11:54;;;;;;;37.10;13.52;;;;;;;0.16;100.00;98125.09;5049817;28;20131;-79
2023/03/19 03:14:19;;;;;;;32.58;13.98;;;;;;;0.08;100.00;98126.97;5033272;28;20017;-79
2023/03/19 03:16:45;;;;;;;37.55;15.20;;;;;;;0.09;100.00;98128.72;5049639;28;20112;-79
2023/03/19 03:19:10;;;;;;;41.30;14.15;;;;;;;0.14;100.00;98133.91;5050427;28;20029;-79
2023/03/19 03:21:36;;;;;;;33.95;14.07;;;;;;;-0.02;100.00;98120.94;5033025;28;20037;-79
2023/03/19 03:24:02;;;;;;;35.85;13.38;;;;;;;-0.02;100.00;98122.69;5032819;28;20036;-79
2023/03/19 03:26:27;;;;;;;29.23;12.60;;;;;;;-0.07;100.00;98130.66;5033314;28;20119;-79
2023/03/19 03:28:53;;;;;;;23.38;10.70;;;;;;;-0.12;100.00;98129.81;5049576;28;20024;-78
2023/03/19 03:31:19;;;;;;;33.28;12.18;;;;;;;-0.15;100.00;98129.84;5049629;28;20071;-79
2023/03/19 03:33:44;;;;;;;31.45;11.38;;;;;;;-0.13;100.00;98132.47;5066160;28;20066;-74
2023/03/19 03:36:11;;;;;;;24.35;11.43;;;;;;;-0.20;100.00;98122.91;5032754;28;20099;-75
2023/03/19 03:38:36;;;;;;;32.88;12.70;;;;;;;-0.17;100.00;98125.50;5048944;28;20037;-75
2023/03/19 03:41:02;;;;;;;37.85;13.13;;;;;;;-0.27;100.00;98124.72;5036202;28;20032;-74
2023/03/19 03:43:27;;;;;;;30.10;12.63;;;;;;;-0.27;100.00;98118.56;5053218;28;20121;-75
2023/03/19 03:45:53;;;;;;;21.27;9.30;;;;;;;-0.35;100.00;98126.56;5053066;28;20352;-79
2023/03/19 03:48:19;;;;;;;21.20;8.52;;;;;;;-0.36;100.00;98127.44;5053197;28;20040;-79
2023/03/19 03:50:44;;;;;;;22.25;8.75;;;;;;;-0.38;100.00;98126.59;5050770;28;20016;-79
2023/03/19 03:53:11;;;;;;;20.02;8.40;;;;;;;-0.42;100.00;98130.13;5070033;28;20029;-79
2023/03/19 03:55:37;;;;;;;17.58;7.90;;;;;;;-0.55;100.00;98120.59;5053374;28;20021;-79
2023/03/19 03:58:03;;;;;;;24.05;9.27;;;;;;;-0.49;100.00;98138.09;5036377;28;20036;-78
2023/03/19 04:00:28;;;;;;;15.45;7.95;;;;;;;-0.51;100.00;98145.09;5036545;28;20037;-79
2023/03/19 04:02:54;;;;;;;19.40;8.73;;;;;;;-0.58;100.00;98142.53;5036431;28;20040;-79
2023/03/19 04:05:20;;;;;;;21.20;8.45;;;;;;;-0.69;100.00;98131.25;5052897;28;20032;-79
2023/03/19 04:07:46;;;;;;;14.70;7.97;;;;;;;-0.65;100.00;98137.34;5069434;28;20024;-79
2023/03/19 04:10:12;;;;;;;14.85;7.80;;;;;;;-0.55;100.00;98144.25;5052651;28;20052;-79
2023/03/19 04:12:38;;;;;;;17.27;9.10;;;;;;;-0.56;100.00;98142.53;5036214;28;20404;-77
2023/03/19 04:15:06;;;;;;;19.67;8.73;;;;;;;-0.56;100.00;98140.78;5052621;28;20025;-78
2023/03/19 04:17:32;;;;;;;21.10;9.35;;;;;;;-0.53;100.00;98145.13;5035729;28;20136;-79
2023/03/19 04:19:58;;;;;;;23.48;10.13;;;;;;;-0.43;100.00;98153.78;5052777;28;20021;-78
2023/03/19 04:22:23;;;;;;;27.25;11.02;;;;;;;-0.58;100.00;98123.25;5036331;28;20542;-78
2023/03/19 04:24:49;;;;;;;27.30;10.77;;;;;;;-0.46;100.00;98148.56;5035449;28;20464;-79
2023/03/19 04:27:15;;;;;;;19.73;10.68;;;;;;;-0.50;100.00;98136.34;5052294;28;20120;-79
2023/03/19 04:29:40;;;;;;;23.00;10.77;;;;;;;-0.45;100.00;98140.66;5035896;28;20033;-78
2023/03/19 04:32:06;;;;;;;22.02;10.43;;;;;;;-0.45;100.00;98137.16;5035637;28;20032;-79
2023/03/19 04:34:32;;;;;;;26.98;10.68;;;;;;;-0.47;100.00;98141.56;5052178;28;20025;-78
2023/03/19 04:36:57;;;;;;;35.25;11.55;;;;;;;-0.50;100.00;98150.34;5035445;28;20063;-77
2023/03/19 04:39:24;;;;;;;29.58;12.15;;;;;;;-0.39;100.00;98155.50;5052449;28;20476;-83
2023/03/19 04:41:50;;;;;;;33.03;13.00;;;;;;;-0.45;100.00;98150.28;5068241;28;20472;-83
2023/03/19 04:44:16;;;;;;;28.67;11.63;;;;;;;-0.33;100.00;98158.94;5052660;28;20051;-82
2023/03/19 04:46:44;;;;;;;28.98;11.77;;;;;;;-0.30;100.00;98151.03;5052287;28;20095;-84
2023/03/19 04:49:09;;;;;;;26.92;11.32;;;;;;;-0.27;100.00;98143.09;5052262;28;20123;-84
2023/03/19 04:51:35;;;;;;;22.63;11.50;;;;;;;-0.17;100.00;98146.53;5051752;28;20124;-82
2023/03/19 04:54:00;;;;;;;30.35;11.10;;;;;;;-0.19;100.00;98138.66;5052703;28;20017;-85
2023/03/19 04:56:26;;;;;;;29.10;11.02;;;;;;;-0.15;100.00;98142.09;5036501;28;20021;-85
2023/03/19 04:58:52;;;;;;;22.08;10.93;;;;;;;-0.28;100.00;98123.00;5053533;28;20017;-86
2023/03/19 05:01:18;;;;;;;27.80;12.93;;;;;;;-0.15;100.00;98134.22;5052704;28;20045;-85
2023/03/19 05:03:43;;;;;;;24.73;11.90;;;;;;;-0.06;100.00;98134.13;5035881;28;20060;-86
2023/03/19 05:06:09;;;;;;;30.75;13.50;;;;;;;0.04;100.00;98138.41;5034199;28;20041;-85
2023/03/19 05:08:34;;;;;;;26.08;11.85;;;;;;;0.11;100.00;98142.72;5052590;28;20388;-85
2023/03/19 05:11:01;;;;;;;33.83;13.77;;;;;;;0.24;100.00;98143.44;5052283;28;20051;-85
2023/03/19 05:13:27;;;;;;;33.95;13.80;;;;;;;0.28;100.00;98138.13;5052228;28;20055;-84
2023/03/19 05:15:54;;;;;;;38.63;15.80;;;;;;;0.46;100.00;98134.41;5052129;28;20044;-84
2023/03/19 05:18:20;;;;;;;41.45;17.75;;;;;;;0.76;100.00;98133.13;5036024;28;20427;-85
2023/03/19 05:20:46;;;;;;;47.22;21.30;;;;;;;1.43;100.00;98139.09;5036061;28;20036;-84
2023/03/19 05:23:12;;;;;;;60.65;23.48;;;;;;;2.68;100.00;98138.47;5035326;28;20479;-87
2023/03/19 05:25:39;;;;;;;64.13;25.83;;;;;;;3.86;100.00;98104.78;5052883;28;20027;-87
2023/03/19 05:28:06;;;;;;;54.00;24.33;;;;;;;4.98;100.00;98067.97;5036559;28;20060;-85
2023/03/19 05:30:33;;;;;;;59.58;25.15;;;;;;;5.92;100.00;98044.47;5052159;28;20500;-85
2023/03/19 05:32:59;;;;;;;54.38;24.30;;;;;;;6.63;93.95;98037.41;5053422;28;20279;-86
2023/03/19 05:35:26;;;;;;;59.30;24.05;;;;;;;6.87;86.13;98007.19;5036633;28;20440;-86
2023/03/19 05:37:52;;;;;;;81.25;32.42;;;;;;;7.15;83.49;97998.97;5053320;28;20028;-85
2023/03/19 05:40:18;;;;;;;76.38;32.28;;;;;;;7.47;81.64;97995.84;5052448;28;20113;-85
2023/03/19 05:42:46;;;;;;;73.93;33.17;;;;;;;8.04;76.53;97982.66;5054382;28;20053;-87
2023/03/19 05:45:12;;;;;;;61.25;26.73;;;;;;;8.77;70.15;97968.59;5035277;28;20024;-85
2023/03/19 05:47:38;;;;;;;55.70;27.15;;;;;;;8.82;67.64;97947.03;5039805;28;20043;-85
2023/03/19 05:50:05;;;;;;;53.53;24.95;;;;;;;9.38;65.35;97962.94;5032647;28;20032;-87
2023/03/19 05:52:31;;;;;;;48.70;21.88;;;;;;;9.54;63.29;97959.38;5036728;28;20024;-86
2023/03/19 05:54:56;;;;;;;55.78;26.27;;;;;;;10.10;61.20;97950.19;5052815;28;20468;-86
2023/03/19 05:57:28;;;;;;;54.67;26.65;;;;;;;10.88;57.59;97942.31;5043157;28;20083;-89
2023/03/19 05:59:54;;;;;;;47.28;24.15;;;;;;;10.96;55.87;97929.34;5053801;28;20028;-86
2023/03/19 06:02:22;;;;;;;51.25;25.92;;;;;;;10.69;55.70;97918.41;5051803;28;20116;-86
2023/03/19 06:04:50;;;;;;;48.33;23.33;;;;;;;10.96;55.21;97907.06;5035416;28;20107;-86
2023/03/19 06:07:16;;;;;;;49.75;23.17;;;;;;;10.56;55.79;97903.97;5035934;28;20384;-84
2023/03/19 06:09:44;;;;;;;44.47;22.95;;;;;;;11.55;54.27;97914.25;5050190;28;20039;-88
2023/03/19 06:12:10;;;;;;;46.38;23.38;;;;;;;11.47;53.19;97905.84;5050018;28;20036;-83
2023/03/19 06:14:36;;;;;;;42.42;24.30;;;;;;;11.71;52.49;97907.06;5048569;28;20021;-85
2023/03/19 06:17:01;;;;;;;45.38;20.92;;;;;;;12.08;51.97;97898.50;5048419;28;20463;-88
2023/03/19 06:19:27;;;;;;;44.40;20.75;;;;;;;12.18;51.05;97893.41;5032856;28;20116;-82
2023/03/19 06:21:52;;;;;;;38.60;18.20;;;;;;;11.38;52.31;97862.56;5048036;28;20467;-83
2023/03/19 06:24:18;;;;;;;33.20;16.23;;;;;;;11.47;53.16;97881.72;5047636;28;20077;-84
2023/03/19 06:26:44;;;;;;;28.77;14.18;;;;;;;12.18;51.20;97883.53;5033336;28;20415;-82
2023/03/19 06:29:10;;;;;;;21.08;12.18;;;;;;;11.45;51.86;97849.66;5032727;28;20029;-81
2023/03/19 06:31:38;;;;;;;26.15;12.73;;;;;;;11.71;52.18;97877.59;5050491;28;20036;-82
2023/03/19 06:34:03;;;;;;;24.73;12.15;;;;;;;12.14;51.19;97876.66;5050424;28;20447;-82
2023/03/19 06:36:29;;;;;;;28.27;12.68;;;;;;;12.48;50.39;97884.28;5032619;28;20032;-81
2023/03/19 06:38:55;;;;;;;28.83;13.77;;;;;;;12.44;49.95;97863.97;5033782;28;20021;-82
2023/03/19 06:41:20;;;;;;;22.80;13.73;;;;;;;12.98;49.85;97869.38;5050041;28;20489;-82
2023/03/19 06:43:48;;;;;;;25.40;12.35;;;;;;;12.85;49.42;97861.28;5050628;28;20097;-82
2023/03/19 06:46:14;;;;;;;25.20;12.60;;;;;;;12.93;49.61;97867.00;5033665;28;20508;-81
2023/03/19 06:48:39;;;;;;;45.38;24.40;;;;;;;13.32;49.24;97868.84;5033497;28;20024;-82
2023/03/19 06:51:05;;;;;;;26.00;11.13;;;;;;;13.47;48.57;97861.59;5050246;28;20145;-83
2023/03/19 06:53:31;;;;;;;17.60;9.43;;;;;;;12.58;48.89;97838.91;5050143;28;20044;-83
2023/03/19 06:55:57;;;;;;;21.00;11.43;;;;;;;13.39;48.54;97855.88;5033575;28;20033;-84
2023/03/19 06:58:22;;;;;;;19.98;9.20;;;;;;;13.81;46.40;97850.19;5050406;28;20412;-83
2023/03/19 07:00:48;;;;;;;17.42;8.95;;;;;;;13.96;46.29;97842.91;5033654;28;20037;-81
2023/03/19 07:03:13;;;;;;;20.80;9.75;;;;;;;14.28;46.64;97849.53;5050428;28;20037;-82
2023/03/19 07:05:39;;;;;;;17.20;8.82;;;;;;;14.90;44.75;97841.41;5050303;28;20044;-82
2023/03/19 07:08:10;;;;;;;17.98;10.65;;;;;;;14.87;44.56;97838.94;5049772;28;20394;-81
2023/03/19 07:10:39;;;;;;;19.38;11.15;;;;;;;15.09;44.04;97837.22;5050798;28;20048;-82
2023/03/19 07:13:05;;;;;;;22.60;11.95;;;;;;;15.18;43.85;97824.88;5033121;28;20488;-81
2023/03/19 07:15:30;;;;;;;25.58;12.23;;;;;;;15.67;43.01;97836.34;5066129;28;20104;-81
2023/03/19 07:17:56;;;;;;;45.53;24.25;;;;;;;15.34;42.70;97813.78;5049584;28;20453;-80
2023/03/19 07:20:21;;;;;;;39.80;20.20;;;;;;;14.97;44.06;97813.03;5050049;28;20033;-81
2023/03/19 07:22:50;;;;;;;18.42;11.05;;;;;;;14.26;44.68;97813.81;5049412;28;20028;-80
2023/03/19 07:25:16;;;;;;;15.32;8.93;;;;;;;12.38;47.48;97788.38;5032849;28;20087;-81
2023/03/19 07:27:43;;;;;;;14.68;8.10;;;;;;;12.60;47.60;97803.94;5032772;28;20474;-81
2023/03/19 07:30:09;;;;;;;30.98;16.48;;;;;;;12.69;48.13;97830.16;5048843;28;20036;-81
2023/03/19 07:32:35;;;;;;;12.48;7.13;;;;;;;13.26;46.85;97810.16;5050014;28;20035;-81
2023/03/19 07:35:01;;;;;;;16.70;8.93;;;;;;;13.94;46.60;97843.00;5050752;28;20025;-81
2023/03/19 07:37:26;;;;;;;23.13;12.20;;;;;;;14.34;45.94;97835.66;5032984;28;20025;-80
2023/03/19 07:39:52;;;;;;;26.55;15.20;;;;;;;14.87;45.61;97833.56;5032819;28;20035;-80
2023/03/19 07:42:18;;;;;;;16.17;9.18;;;;;;;15.15;44.76;97827.81;5049292;28;20020;-81
2023/03/19 07:44:43;;;;;;;12.00;7.00;;;;;;;15.77;43.06;97827.53;5032739;28;20025;-81
2023/03/19 07:47:10;;;;;;;13.90;8.55;;;;;;;16.25;41.79;97829.03;5049447;28;20098;-82
2023/03/19 07:49:36;;;;;;;12.32;6.55;;;;;;;15.47;42.03;97793.00;5032955;28;20107;-80
2023/03/19 07:52:01;;;;;;;16.60;6.30;;;;;;;16.61;40.48;97814.44;5032578;28;20108;-80
2023/03/19 07:54:27;;;;;;;13.38;7.75;;;;;;;16.44;40.03;97790.59;5066409;28;20496;-80
2023/03/19 07:56:52;;;;;;;12.32;6.88;;;;;;;16.98;39.51;97798.75;5032689;28;20487;-81
2023/03/19 07:59:18;;;;;;;13.48;7.15;;;;;;;17.35;38.92;97783.81;5032352;28;20460;-80
2023/03/19 08:01:43;;;;;;;12.93;6.82;;;;;;;17.02;39.07;97771.31;5049398;28;20023;-80
2023/03/19 08:04:09;;;;;;;12.30;7.70;;;;;;;17.63;39.08;97790.44;5048935;28;20029;-80
2023/03/19 08:06:35;;;;;;;19.90;7.82;;;;;;;17.52;38.54;97772.41;5032646;28;20395;-81
2023/03/19 08:09:00;;;;;;;13.98;8.13;;;;;;;18.04;38.23;97792.25;5032829;28;20017;-81
2023/03/19 08:11:28;;;;;;;19.00;8.77;;;;;;;17.18;38.26;97752.81;5049475;28;20025;-80
2023/03/19 08:13:54;;;;;;;16.73;9.25;;;;;;;17.51;38.64;97765.28;5033012;28;20017;-82
2023/03/19 08:16:20;;;;;;;20.25;9.65;;;;;;;18.12;38.10;97776.19;5049220;28;20441;-81
2023/03/19 08:18:45;;;;;;;15.90;9.38;;;;;;;17.97;37.81;97759.44;5049039;28;20032;-79
2023/03/19 08:21:11;;;;;;;18.90;8.98;;;;;;;17.24;38.67;97737.91;5048788;28;20029;-81
2023/03/19 08:23:36;;;;;;;14.60;8.88;;;;;;;18.24;37.38;97759.69;5049183;28;20079;-81
2023/03/19 08:26:02;;;;;;;19.75;9.88;;;;;;;18.61;37.20;97759.97;5049597;28;20021;-80
2023/03/19 08:28:27;;;;;;;17.90;9.18;;;;;;;18.14;36.68;97733.59;5052813;28;20094;-82
2023/03/19 08:30:54;;;;;;;17.08;8.95;;;;;;;19.08;35.06;97749.31;5052942;28;20028;-81
2023/03/19 08:33:20;;;;;;;19.23;9.77;;;;;;;19.67;34.73;97747.28;5035937;28;20441;-80
2023/03/19 08:35:46;;;;;;;17.48;8.90;;;;;;;19.76;34.10;97738.28;5052569;28;20033;-81
2023/03/19 08:38:11;;;;;;;17.77;9.32;;;;;;;20.48;33.71;97729.41;5052490;28;20029;-81
2023/03/19 08:40:37;;;;;;;17.33;9.63;;;;;;;21.30;32.73;97742.84;5052454;28;20024;-80
2023/03/19 08:43:02;;;;;;;14.57;8.88;;;;;;;21.75;32.23;97743.53;5053764;28;20039;-81
2023/03/19 08:45:28;;;;;;;11.52;7.05;;;;;;;21.66;31.69;97721.91;5052383;28;20052;-80
2023/03/19 08:47:56;;;;;;;13.05;6.75;;;;;;;20.66;32.31;97689.53;5052505;28;20025;-80
2023/03/19 08:50:22;;;;;;;10.00;5.38;;;;;;;21.71;31.04;97711.38;5035573;28;20485;-80
2023/03/19 08:52:48;;;;;;;5.45;4.43;;;;;;;22.79;29.81;97714.31;5052173;28;20032;-80
2023/03/19 08:55:14;;;;;;;7.80;4.68;;;;;;;22.75;29.91;97688.38;5035631;28;20036;-80
2023/03/19 08:57:40;;;;;;;8.80;4.68;;;;;;;22.78;29.64;97686.16;5036070;28;20067;-81
2023/03/19 09:00:09;;;;;;;11.45;6.88;;;;;;;22.72;30.41;97678.66;5052195;28;20068;-80
2023/03/19 09:02:34;;;;;;;9.20;5.05;;;;;;;22.09;31.07;97654.56;5052323;28;20493;-79
2023/03/19 09:05:00;;;;;;;6.80;4.40;;;;;;;22.52;30.84;97666.28;5035485;28;20032;-81
2023/03/19 09:07:25;;;;;;;8.27;5.00;;;;;;;23.20;30.26;97681.44;5051999;28;20139;-80
2023/03/19 09:09:51;;;;;;;11.30;5.85;;;;;;;23.80;29.36;97680.22;5035349;28;20024;-81
2023/03/19 09:12:17;;;;;;;5.05;2.85;;;;;;;23.58;28.74;97659.94;5035195;28;20025;-81
2023/03/19 09:14:43;;;;;;;6.55;3.17;;;;;;;23.38;29.50;97664.03;5035632;28;20021;-81
2023/03/19 09:17:10;;;;;;;13.52;9.00;;;;;;;23.93;29.50;97664.97;5052011;28;20381;-82
2023/03/19 09:19:36;;;;;;;7.35;3.22;;;;;;;23.69;29.16;97651.34;5035153;28;20021;-82
2023/03/19 09:22:02;;;;;;;6.38;3.20;;;;;;;22.83;30.19;97631.94;5069123;28;20039;-81
2023/03/19 09:24:28;;;;;;;6.07;3.45;;;;;;;23.22;29.94;97648.50;5051812;28;20045;-79
2023/03/19 09:26:54;;;;;;;2.72;2.17;;;;;;;23.63;29.57;97652.06;5052522;28;20570;-82
2023/03/19 09:29:20;;;;;;;5.95;2.95;;;;;;;23.62;29.83;97634.84;5052181;28;20044;-80
2023/03/19 09:31:45;;;;;;;5.00;2.90;;;;;;;23.90;29.86;97640.75;5052154;28;20094;-80
2023/03/19 09:34:12;;;;;;;4.05;3.20;;;;;;;23.77;30.18;97642.31;5052092;28;20033;-80
2023/03/19 09:36:38;;;;;;;5.18;3.13;;;;;;;23.00;30.98;97622.75;5068620;28;20035;-80
2023/03/19 09:39:05;;;;;;;5.70;2.85;;;;;;;23.11;31.22;97633.31;5035215;28;20119;-79
2023/03/19 09:41:30;;;;;;;8.35;4.57;;;;;;;24.48;29.46;97654.00;5068426;28;20090;-79
2023/03/19 09:44:05;;;;;;;5.10;3.33;;;;;;;25.95;27.83;97663.63;5051772;28;20481;-80
2023/03/19 09:47:06;;;;;;;4.95;3.20;;;;;;;26.54;27.47;97663.63;5068417;28;20025;-81
2023/03/19 09:49:37;;;;;;;5.28;3.42;;;;;;;25.52;28.43;97621.44;5030834;28;20416;-81
2023/03/19 09:52:35;;;;;;;6.47;3.88;;;;;;;26.43;27.60;97651.22;5051367;28;20048;-81
2023/03/19 09:55:24;;;;;;;8.35;3.83;;;;;;;25.80;28.05;97618.91;5046033;28;20416;-81
2023/03/19 09:57:52;;;;;;;5.03;3.45;;;;;;;24.59;29.31;97589.81;5041578;28;20043;-81
2023/03/19 10:00:26;;;;;;;7.00;3.42;;;;;;;25.24;29.05;97625.78;5051538;28;20029;-81
2023/03/19 10:03:13;;;;;;;6.90;3.97;;;;;;;26.82;27.86;97649.00;5051173;28;20118;-81
2023/03/19 10:05:51;;;;;;;6.78;4.10;;;;;;;26.82;26.79;97620.69;5050357;28;20041;-81
2023/03/19 10:08:38;;;;;;;5.95;3.80;;;;;;;26.83;27.07;97617.75;5034564;28;20040;-81
2023/03/19 10:11:09;;;;;;;6.80;3.85;;;;;;;27.23;27.60;97629.97;5044859;28;20499;-80
2023/03/19 10:13:51;;;;;;;7.15;4.03;;;;;;;27.11;27.24;97612.31;5052366;28;20420;-80
2023/03/19 10:16:23;;;;;;;5.85;3.92;;;;;;;27.77;26.39;97616.50;5068026;28;20037;-81
2023/03/19 10:18:50;;;;;;;6.72;3.60;;;;;;;28.54;25.65;97630.06;5067721;28;20032;-81
2023/03/19 10:21:25;;;;;;;4.25;3.10;;;;;;;28.79;25.46;97617.47;5051466;28;20037;-81
2023/03/19 10:24:03;;;;;;;8.05;3.83;;;;;;;28.93;25.76;97613.69;5050679;28;20037;-81
2023/03/19 10:26:34;;;;;;;5.88;3.97;;;;;;;28.44;26.45;97602.06;5051911;28;20687;-81
2023/03/19 10:29:09;;;;;;;6.40;3.60;;;;;;;27.70;27.35;97568.84;5050799;28;20031;-81
2023/03/19 10:32:13;;;;;;;5.55;3.75;;;;;;;26.90;28.54;97563.75;5033850;28;20024;-81
2023/03/19 10:34:47;;;;;;;4.00;3.10;;;;;;;25.14;30.05;97519.25;5039782;28;20108;-81
2023/03/19 10:37:29;;;;;;;8.60;3.53;;;;;;;25.82;29.72;97572.97;5050609;28;20090;-80
2023/03/19 10:39:59;;;;;;;9.77;5.63;;;;;;;26.24;29.60;97562.16;5033973;28;20485;-82
2023/03/19 10:42:46;;;;;;;9.52;3.40;;;;;;;27.53;28.70;97589.47;5050848;28;20043;-82
2023/03/19 10:45:48;;;;;;;5.45;3.60;;;;;;;28.90;26.73;97597.56;5050777;28;20408;-83
2023/03/19 10:48:16;;;;;;;5.35;3.10;;;;;;;27.23;27.53;97528.31;5049008;28;20128;-82
2023/03/19 10:51:01;;;;;;;5.00;3.03;;;;;;;25.72;28.78;97520.31;5029450;28;20033;-80
2023/03/19 10:53:31;;;;;;;8.90;3.58;;;;;;;27.33;27.86;97542.56;5046011;28;20024;-81
2023/03/19 10:56:06;;;;;;;6.03;3.55;;;;;;;28.44;27.22;97574.53;5050389;28;20032;-81
2023/03/19 10:58:34;;;;;;;4.32;2.67;;;;;;;29.53;26.28;97579.59;5067337;28;20174;-81
2023/03/19 11:01:11;;;;;;;4.70;2.30;;;;;;;29.59;25.53;97553.09;5050606;28;20123;-82
2023/03/19 11:03:49;;;;;;;7.07;2.63;;;;;;;28.78;26.18;97544.16;5050063;28;20025;-79
2023/03/19 11:06:26;;;;;;;4.88;3.53;;;;;;;30.03;24.91;97555.13;5051284;28;20032;-82
2023/03/19 11:08:59;;;;;;;4.82;2.90;;;;;;;30.00;25.19;97550.03;5050059;28;20481;-81
2023/03/19 11:11:46;;;;;;;5.93;2.22;;;;;;;29.99;24.48;97527.09;5033569;28;20066;-81
2023/03/19 11:14:17;;;;;;;5.50;3.22;;;;;;;30.77;23.87;97540.78;5049898;28;20480;-81
2023/03/19 11:17:15;;;;;;;7.00;3.20;;;;;;;30.23;24.32;97502.63;5033748;28;20481;-80
2023/03/19 11:19:42;;;;;;;7.72;2.95;;;;;;;29.40;24.97;97477.63;5047891;28;20086;-80
2023/03/19 11:22:15;;;;;;;4.47;2.60;;;;;;;29.77;24.93;97491.72;5049838;28;20128;-80
2023/03/19 11:24:48;;;;;;;4.35;2.95;;;;;;;29.88;24.64;97491.06;5049483;28;20087;-79
2023/03/19 11:27:14;;;;;;;8.02;4.32;;;;;;;30.31;23.93;97492.16;5066546;28;20032;-79
2023/03/19 11:29:43;;;;;;;1.65;1.33;;;;;;;30.78;22.97;97492.75;5051212;28;20040;-79
2023/03/19 11:32:34;;;;;;;2.58;1.55;;;;;;;30.50;22.39;97463.63;5044756;28;20033;-79
2023/03/19 11:35:21;;;;;;;1.60;1.33;;;;;;;29.20;23.75;97432.66;5049647;28;20037;-80
2023/03/19 11:37:56;;;;;;;1.75;1.25;;;;;;;28.80;23.73;97406.22;5051105;28;20119;-79
2023/03/19 11:40:32;;;;;;;1.70;1.50;;;;;;;28.65;24.22;97422.13;5049659;28;20028;-80
2023/03/19 11:43:22;;;;;;;2.72;1.30;;;;;;;30.16;23.05;97450.19;5050154;28;20029;-80
2023/03/19 11:46:30;;;;;;;11.02;4.95;;;;;;;30.07;23.21;97434.97;5049690;28;20028;-80
2023/03/19 11:49:17;;;;;;;3.95;3.08;;;;;;;28.58;24.04;97382.72;5042190;28;20397;-80
2023/03/19 11:51:42;;;;;;;9.25;6.18;;;;;;;28.49;24.26;97382.06;5033387;28;20496;-81
2023/03/19 11:54:20;;;;;;;3.53;1.75;;;;;;;27.47;25.04;97369.56;5049185;28;20025;-81
2023/03/19 11:57:03;;;;;;;2.70;1.60;;;;;;;27.16;25.15;97356.28;5033029;28;20036;-81
2023/03/19 11:59:47;;;;;;;9.18;5.05;;;;;;;29.08;24.14;97415.09;5079957;28;20028;-81
2023/03/19 12:02:30;;;;;;;3.88;2.38;;;;;;;29.27;23.47;97399.63;5053315;28;20120;-81
2023/03/19 12:05:28;;;;;;;3.22;1.80;;;;;;;28.59;24.20;97379.72;5047123;28;20083;-81